sensor_id;sensor_type;location;lat;lon;timestamp;P1;durP1;ratioP1;P2;durP2;ratioP2
21356;SDS011;10836;53.068;18.234;2023-11-19T00:00:20;37.77;;;20.27;;
21356;SDS011;10836;53.068;18.234;2023-11-19T00:03:06;35.83;;;20.23;;
21356;SDS011;10836;53.068;18.234;2023-11-19T00:05:35;37.27;;;20.13;;
21356;SDS011;10836;53.068;18.234;2023-11-19T00:08:02;39.03;;;20.97;;
21356;SDS011;10836;53.068;18.234;2023-11-19T00:10:29;34.53;;;21.90;;
21356;SDS011;10836;53.068;18.234;2023-11-19T00:12:56;37.67;;;22.03;;
21356;SDS011;10836;53.068;18.234;2023-11-19T00:15:24;36.30;;;21.77;;
21356;SDS011;10836;53.068;18.234;2023-11-19T00:17:51;48.73;;;25.53;;
21356;SDS011;10836;53.068;18.234;2023-11-19T00:20:19;44.47;;;25.07;;
21356;SDS011;10836;53.068;18.234;2023-11-19T00:22:49;76.33;;;35.73;;
21356;SDS011;10836;53.068;18.234;2023-11-19T00:25:19;82.13;;;39.00;;
21356;SDS011;10836;53.068;18.234;2023-11-19T00:27:48;82.17;;;37.00;;
21356;SDS011;10836;53.068;18.234;2023-11-19T00:30:17;68.97;;;33.83;;
21356;SDS011;10836;53.068;18.234;2023-11-19T00:32:44;71.53;;;34.13;;
21356;SDS011;10836;53.068;18.234;2023-11-19T00:35:12;65.97;;;31.87;;
21356;SDS011;10836;53.068;18.234;2023-11-19T00:37:42;55.03;;;31.07;;
21356;SDS011;10836;53.068;18.234;2023-11-19T00:40:10;59.33;;;30.63;;
21356;SDS011;10836;53.068;18.234;2023-11-19T00:42:38;64.07;;;31.53;;
21356;SDS011;10836;53.068;18.234;2023-11-19T00:45:05;64.90;;;31.37;;
21356;SDS011;10836;53.068;18.234;2023-11-19T00:47:36;50.73;;;27.67;;
21356;SDS011;10836;53.068;18.234;2023-11-19T00:50:03;52.93;;;27.90;;
21356;SDS011;10836;53.068;18.234;2023-11-19T00:52:30;47.67;;;25.77;;
21356;SDS011;10836;53.068;18.234;2023-11-19T00:54:57;53.13;;;28.90;;
21356;SDS011;10836;53.068;18.234;2023-11-19T00:57:24;50.50;;;27.43;;
21356;SDS011;10836;53.068;18.234;2023-11-19T00:59:53;57.63;;;29.83;;
21356;SDS011;10836;53.068;18.234;2023-11-19T01:02:20;60.00;;;31.60;;
21356;SDS011;10836;53.068;18.234;2023-11-19T01:04:47;58.23;;;30.73;;
21356;SDS011;10836;53.068;18.234;2023-11-19T01:07:14;56.07;;;28.93;;
21356;SDS011;10836;53.068;18.234;2023-11-19T01:09:42;55.63;;;28.70;;
21356;SDS011;10836;53.068;18.234;2023-11-19T01:12:09;60.10;;;30.97;;
21356;SDS011;10836;53.068;18.234;2023-11-19T01:14:37;55.77;;;29.90;;
21356;SDS011;10836;53.068;18.234;2023-11-19T01:17:05;51.53;;;28.93;;
21356;SDS011;10836;53.068;18.234;2023-11-19T01:19:32;52.23;;;28.40;;
21356;SDS011;10836;53.068;18.234;2023-11-19T01:21:59;51.63;;;28.30;;
21356;SDS011;10836;53.068;18.234;2023-11-19T01:24:27;56.03;;;28.27;;
21356;SDS011;10836;53.068;18.234;2023-11-19T01:26:55;60.90;;;29.53;;
21356;SDS011;10836;53.068;18.234;2023-11-19T01:29:24;148.50;;;59.80;;
21356;SDS011;10836;53.068;18.234;2023-11-19T01:31:51;111.97;;;47.90;;
21356;SDS011;10836;53.068;18.234;2023-11-19T01:34:19;130.70;;;53.30;;
21356;SDS011;10836;53.068;18.234;2023-11-19T01:36:49;132.33;;;52.20;;
21356;SDS011;10836;53.068;18.234;2023-11-19T01:39:16;104.83;;;47.13;;
21356;SDS011;10836;53.068;18.234;2023-11-19T01:41:43;109.83;;;45.83;;
21356;SDS011;10836;53.068;18.234;2023-11-19T01:44:10;107.30;;;44.13;;
21356;SDS011;10836;53.068;18.234;2023-11-19T01:46:40;120.17;;;46.13;;
21356;SDS011;10836;53.068;18.234;2023-11-19T01:49:10;124.27;;;47.70;;
21356;SDS011;10836;53.068;18.234;2023-11-19T01:51:38;142.63;;;55.03;;
21356;SDS011;10836;53.068;18.234;2023-11-19T01:54:07;153.87;;;59.20;;
21356;SDS011;10836;53.068;18.234;2023-11-19T01:56:35;182.13;;;65.80;;
21356;SDS011;10836;53.068;18.234;2023-11-19T01:59:03;182.33;;;69.73;;
21356;SDS011;10836;53.068;18.234;2023-11-19T02:01:31;139.93;;;57.13;;
21356;SDS011;10836;53.068;18.234;2023-11-19T02:04:01;103.30;;;45.73;;
21356;SDS011;10836;53.068;18.234;2023-11-19T02:06:28;83.20;;;37.87;;
21356;SDS011;10836;53.068;18.234;2023-11-19T02:08:57;70.80;;;35.17;;
21356;SDS011;10836;53.068;18.234;2023-11-19T02:11:23;75.83;;;34.67;;
21356;SDS011;10836;53.068;18.234;2023-11-19T02:13:56;68.13;;;33.97;;
21356;SDS011;10836;53.068;18.234;2023-11-19T02:16:23;66.43;;;33.70;;
21356;SDS011;10836;53.068;18.234;2023-11-19T02:18:50;62.63;;;33.90;;
21356;SDS011;10836;53.068;18.234;2023-11-19T02:21:17;65.00;;;32.43;;
21356;SDS011;10836;53.068;18.234;2023-11-19T02:23:44;66.13;;;33.50;;
21356;SDS011;10836;53.068;18.234;2023-11-19T02:26:22;72.70;;;35.70;;
21356;SDS011;10836;53.068;18.234;2023-11-19T02:28:59;71.73;;;35.80;;
21356;SDS011;10836;53.068;18.234;2023-11-19T02:31:26;75.43;;;36.37;;
21356;SDS011;10836;53.068;18.234;2023-11-19T02:33:54;72.50;;;34.27;;
21356;SDS011;10836;53.068;18.234;2023-11-19T02:36:21;72.93;;;36.53;;
21356;SDS011;10836;53.068;18.234;2023-11-19T02:38:48;76.33;;;34.87;;
21356;SDS011;10836;53.068;18.234;2023-11-19T02:41:16;79.27;;;36.97;;
21356;SDS011;10836;53.068;18.234;2023-11-19T02:43:43;90.10;;;41.73;;
21356;SDS011;10836;53.068;18.234;2023-11-19T02:46:10;99.53;;;43.53;;
21356;SDS011;10836;53.068;18.234;2023-11-19T02:48:40;89.33;;;40.00;;
21356;SDS011;10836;53.068;18.234;2023-11-19T02:51:08;81.67;;;39.30;;
21356;SDS011;10836;53.068;18.234;2023-11-19T02:53:36;76.83;;;38.57;;
21356;SDS011;10836;53.068;18.234;2023-11-19T02:56:05;103.80;;;45.43;;
21356;SDS011;10836;53.068;18.234;2023-11-19T02:58:38;92.23;;;43.77;;
21356;SDS011;10836;53.068;18.234;2023-11-19T03:01:05;79.67;;;38.70;;
21356;SDS011;10836;53.068;18.234;2023-11-19T03:03:39;77.73;;;38.57;;
21356;SDS011;10836;53.068;18.234;2023-11-19T03:06:08;76.57;;;37.37;;
21356;SDS011;10836;53.068;18.234;2023-11-19T03:08:38;69.00;;;35.87;;
21356;SDS011;10836;53.068;18.234;2023-11-19T03:11:05;68.63;;;35.53;;
21356;SDS011;10836;53.068;18.234;2023-11-19T03:13:32;68.53;;;34.73;;
21356;SDS011;10836;53.068;18.234;2023-11-19T03:15:59;68.30;;;33.00;;
21356;SDS011;10836;53.068;18.234;2023-11-19T03:18:27;74.33;;;34.23;;
21356;SDS011;10836;53.068;18.234;2023-11-19T03:20:55;79.27;;;37.33;;
21356;SDS011;10836;53.068;18.234;2023-11-19T03:23:22;84.37;;;38.40;;
21356;SDS011;10836;53.068;18.234;2023-11-19T03:25:49;88.57;;;38.77;;
21356;SDS011;10836;53.068;18.234;2023-11-19T03:28:16;80.83;;;36.90;;
21356;SDS011;10836;53.068;18.234;2023-11-19T03:30:43;80.20;;;37.87;;
21356;SDS011;10836;53.068;18.234;2023-11-19T03:33:10;82.03;;;37.57;;
21356;SDS011;10836;53.068;18.234;2023-11-19T03:35:38;80.07;;;37.00;;
21356;SDS011;10836;53.068;18.234;2023-11-19T03:38:05;81.80;;;37.63;;
21356;SDS011;10836;53.068;18.234;2023-11-19T03:40:32;82.10;;;39.83;;
21356;SDS011;10836;53.068;18.234;2023-11-19T03:43:02;73.53;;;36.20;;
21356;SDS011;10836;53.068;18.234;2023-11-19T03:45:30;70.50;;;32.27;;
21356;SDS011;10836;53.068;18.234;2023-11-19T03:47:58;68.80;;;33.90;;
21356;SDS011;10836;53.068;18.234;2023-11-19T03:50:25;67.63;;;32.80;;
21356;SDS011;10836;53.068;18.234;2023-11-19T03:52:52;63.90;;;33.77;;
21356;SDS011;10836;53.068;18.234;2023-11-19T03:55:19;64.07;;;33.40;;
21356;SDS011;10836;53.068;18.234;2023-11-19T03:57:46;62.00;;;32.07;;
21356;SDS011;10836;53.068;18.234;2023-11-19T04:00:15;69.30;;;32.77;;
21356;SDS011;10836;53.068;18.234;2023-11-19T04:02:42;64.03;;;33.33;;
21356;SDS011;10836;53.068;18.234;2023-11-19T04:05:09;64.47;;;31.97;;
21356;SDS011;10836;53.068;18.234;2023-11-19T04:07:37;64.47;;;31.83;;
21356;SDS011;10836;53.068;18.234;2023-11-19T04:10:04;66.57;;;30.90;;
21356;SDS011;10836;53.068;18.234;2023-11-19T04:12:32;65.30;;;32.60;;
21356;SDS011;10836;53.068;18.234;2023-11-19T04:14:58;58.73;;;31.20;;
21356;SDS011;10836;53.068;18.234;2023-11-19T04:17:28;55.90;;;29.57;;
21356;SDS011;10836;53.068;18.234;2023-11-19T04:19:55;60.50;;;30.40;;
21356;SDS011;10836;53.068;18.234;2023-11-19T04:22:23;64.30;;;31.50;;
21356;SDS011;10836;53.068;18.234;2023-11-19T04:24:51;62.83;;;33.33;;
21356;SDS011;10836;53.068;18.234;2023-11-19T04:27:18;59.70;;;31.80;;
21356;SDS011;10836;53.068;18.234;2023-11-19T04:29:44;58.83;;;31.87;;
21356;SDS011;10836;53.068;18.234;2023-11-19T04:32:14;57.83;;;30.83;;
21356;SDS011;10836;53.068;18.234;2023-11-19T04:34:41;59.10;;;31.60;;
21356;SDS011;10836;53.068;18.234;2023-11-19T04:37:08;63.87;;;32.50;;
21356;SDS011;10836;53.068;18.234;2023-11-19T04:39:39;60.23;;;32.13;;
21356;SDS011;10836;53.068;18.234;2023-11-19T04:42:06;60.83;;;31.10;;
21356;SDS011;10836;53.068;18.234;2023-11-19T04:44:33;55.67;;;30.37;;
21356;SDS011;10836;53.068;18.234;2023-11-19T04:47:00;58.30;;;30.50;;
21356;SDS011;10836;53.068;18.234;2023-11-19T04:49:28;58.77;;;30.80;;
21356;SDS011;10836;53.068;18.234;2023-11-19T04:51:55;54.90;;;30.03;;
21356;SDS011;10836;53.068;18.234;2023-11-19T04:54:22;59.73;;;30.37;;
21356;SDS011;10836;53.068;18.234;2023-11-19T04:56:49;56.90;;;29.83;;
21356;SDS011;10836;53.068;18.234;2023-11-19T04:59:16;57.13;;;31.43;;
21356;SDS011;10836;53.068;18.234;2023-11-19T05:01:46;58.10;;;29.83;;
21356;SDS011;10836;53.068;18.234;2023-11-19T05:04:14;56.17;;;28.53;;
21356;SDS011;10836;53.068;18.234;2023-11-19T05:06:42;55.27;;;30.33;;
21356;SDS011;10836;53.068;18.234;2023-11-19T05:09:09;53.50;;;29.50;;
21356;SDS011;10836;53.068;18.234;2023-11-19T05:11:36;57.43;;;30.57;;
21356;SDS011;10836;53.068;18.234;2023-11-19T05:14:17;58.37;;;31.53;;
21356;SDS011;10836;53.068;18.234;2023-11-19T05:16:46;58.47;;;29.87;;
21356;SDS011;10836;53.068;18.234;2023-11-19T05:19:13;59.90;;;30.17;;
21356;SDS011;10836;53.068;18.234;2023-11-19T05:21:44;56.73;;;28.30;;
21356;SDS011;10836;53.068;18.234;2023-11-19T05:24:11;54.83;;;28.10;;
21356;SDS011;10836;53.068;18.234;2023-11-19T05:26:41;49.37;;;27.70;;
21356;SDS011;10836;53.068;18.234;2023-11-19T05:29:08;56.27;;;28.67;;
21356;SDS011;10836;53.068;18.234;2023-11-19T05:31:35;52.50;;;27.67;;
21356;SDS011;10836;53.068;18.234;2023-11-19T05:34:04;57.67;;;28.73;;
21356;SDS011;10836;53.068;18.234;2023-11-19T05:36:31;52.90;;;28.43;;
21356;SDS011;10836;53.068;18.234;2023-11-19T05:38:58;59.43;;;29.70;;
21356;SDS011;10836;53.068;18.234;2023-11-19T05:41:25;55.10;;;28.40;;
21356;SDS011;10836;53.068;18.234;2023-11-19T05:43:52;48.63;;;27.10;;
21356;SDS011;10836;53.068;18.234;2023-11-19T05:46:19;53.77;;;29.90;;
21356;SDS011;10836;53.068;18.234;2023-11-19T05:48:47;50.20;;;27.60;;
21356;SDS011;10836;53.068;18.234;2023-11-19T05:51:14;56.20;;;28.70;;
21356;SDS011;10836;53.068;18.234;2023-11-19T05:53:42;49.90;;;26.50;;
21356;SDS011;10836;53.068;18.234;2023-11-19T05:56:10;48.27;;;27.30;;
21356;SDS011;10836;53.068;18.234;2023-11-19T05:58:37;47.53;;;25.77;;
21356;SDS011;10836;53.068;18.234;2023-11-19T06:01:05;49.23;;;25.13;;
21356;SDS011;10836;53.068;18.234;2023-11-19T06:03:35;46.20;;;25.60;;
21356;SDS011;10836;53.068;18.234;2023-11-19T06:06:02;44.30;;;24.63;;
21356;SDS011;10836;53.068;18.234;2023-11-19T06:08:29;50.97;;;25.60;;
21356;SDS011;10836;53.068;18.234;2023-11-19T06:10:57;44.63;;;23.60;;
21356;SDS011;10836;53.068;18.234;2023-11-19T06:13:24;47.00;;;24.37;;
21356;SDS011;10836;53.068;18.234;2023-11-19T06:15:52;41.73;;;23.60;;
21356;SDS011;10836;53.068;18.234;2023-11-19T06:18:19;41.47;;;22.03;;
21356;SDS011;10836;53.068;18.234;2023-11-19T06:20:47;46.37;;;24.20;;
21356;SDS011;10836;53.068;18.234;2023-11-19T06:23:14;48.17;;;23.87;;
21356;SDS011;10836;53.068;18.234;2023-11-19T06:25:42;46.07;;;25.30;;
21356;SDS011;10836;53.068;18.234;2023-11-19T06:28:08;40.03;;;22.77;;
21356;SDS011;10836;53.068;18.234;2023-11-19T06:30:36;42.30;;;22.67;;
21356;SDS011;10836;53.068;18.234;2023-11-19T06:33:03;41.40;;;21.73;;
21356;SDS011;10836;53.068;18.234;2023-11-19T06:35:30;39.07;;;21.97;;
21356;SDS011;10836;53.068;18.234;2023-11-19T06:38:03;40.33;;;22.23;;
21356;SDS011;10836;53.068;18.234;2023-11-19T06:40:32;42.33;;;22.00;;
21356;SDS011;10836;53.068;18.234;2023-11-19T06:42:59;37.47;;;22.60;;
21356;SDS011;10836;53.068;18.234;2023-11-19T06:45:26;38.63;;;20.87;;
21356;SDS011;10836;53.068;18.234;2023-11-19T06:47:53;44.20;;;22.97;;
21356;SDS011;10836;53.068;18.234;2023-11-19T06:50:20;38.97;;;22.33;;
21356;SDS011;10836;53.068;18.234;2023-11-19T06:52:47;36.63;;;20.23;;
21356;SDS011;10836;53.068;18.234;2023-11-19T06:55:14;39.87;;;21.43;;
21356;SDS011;10836;53.068;18.234;2023-11-19T06:57:42;36.60;;;21.33;;
21356;SDS011;10836;53.068;18.234;2023-11-19T07:00:09;37.40;;;21.00;;
21356;SDS011;10836;53.068;18.234;2023-11-19T07:02:38;36.50;;;20.50;;
21356;SDS011;10836;53.068;18.234;2023-11-19T07:05:06;40.53;;;22.10;;
21356;SDS011;10836;53.068;18.234;2023-11-19T07:07:34;41.37;;;21.00;;
21356;SDS011;10836;53.068;18.234;2023-11-19T07:10:02;38.60;;;20.53;;
21356;SDS011;10836;53.068;18.234;2023-11-19T07:12:31;37.90;;;21.03;;
21356;SDS011;10836;53.068;18.234;2023-11-19T07:14:58;37.77;;;20.70;;
21356;SDS011;10836;53.068;18.234;2023-11-19T07:17:25;38.67;;;20.53;;
21356;SDS011;10836;53.068;18.234;2023-11-19T07:19:52;39.00;;;21.40;;
21356;SDS011;10836;53.068;18.234;2023-11-19T07:22:19;40.70;;;22.20;;
21356;SDS011;10836;53.068;18.234;2023-11-19T07:24:47;37.20;;;21.43;;
21356;SDS011;10836;53.068;18.234;2023-11-19T07:27:13;33.83;;;19.97;;
21356;SDS011;10836;53.068;18.234;2023-11-19T07:29:40;36.90;;;20.37;;
21356;SDS011;10836;53.068;18.234;2023-11-19T07:32:10;35.87;;;19.33;;
21356;SDS011;10836;53.068;18.234;2023-11-19T07:34:37;37.40;;;20.43;;
21356;SDS011;10836;53.068;18.234;2023-11-19T07:37:05;38.03;;;21.20;;
21356;SDS011;10836;53.068;18.234;2023-11-19T07:39:32;34.10;;;20.87;;
21356;SDS011;10836;53.068;18.234;2023-11-19T07:41:59;32.80;;;19.13;;
21356;SDS011;10836;53.068;18.234;2023-11-19T07:44:26;35.37;;;20.53;;
21356;SDS011;10836;53.068;18.234;2023-11-19T07:46:53;36.70;;;20.93;;
21356;SDS011;10836;53.068;18.234;2023-11-19T07:49:21;37.83;;;21.47;;
21356;SDS011;10836;53.068;18.234;2023-11-19T07:51:47;35.97;;;20.20;;
21356;SDS011;10836;53.068;18.234;2023-11-19T07:54:14;38.67;;;20.13;;
21356;SDS011;10836;53.068;18.234;2023-11-19T07:56:41;32.87;;;19.50;;
21356;SDS011;10836;53.068;18.234;2023-11-19T07:59:08;37.53;;;20.53;;
21356;SDS011;10836;53.068;18.234;2023-11-19T08:01:35;33.03;;;19.13;;
21356;SDS011;10836;53.068;18.234;2023-11-19T08:04:02;37.13;;;20.30;;
21356;SDS011;10836;53.068;18.234;2023-11-19T08:06:30;37.00;;;19.73;;
21356;SDS011;10836;53.068;18.234;2023-11-19T08:08:57;41.07;;;21.93;;
21356;SDS011;10836;53.068;18.234;2023-11-19T08:11:24;37.63;;;19.73;;
21356;SDS011;10836;53.068;18.234;2023-11-19T08:13:51;37.90;;;21.07;;
21356;SDS011;10836;53.068;18.234;2023-11-19T08:16:18;36.93;;;20.33;;
21356;SDS011;10836;53.068;18.234;2023-11-19T08:18:45;38.27;;;21.13;;
21356;SDS011;10836;53.068;18.234;2023-11-19T08:21:12;37.13;;;20.80;;
21356;SDS011;10836;53.068;18.234;2023-11-19T08:23:40;39.93;;;21.83;;
21356;SDS011;10836;53.068;18.234;2023-11-19T08:26:07;33.53;;;19.70;;
21356;SDS011;10836;53.068;18.234;2023-11-19T08:28:34;35.50;;;20.30;;
21356;SDS011;10836;53.068;18.234;2023-11-19T08:31:02;34.37;;;20.57;;
21356;SDS011;10836;53.068;18.234;2023-11-19T08:33:32;35.70;;;21.63;;
21356;SDS011;10836;53.068;18.234;2023-11-19T08:35:59;38.67;;;21.60;;
21356;SDS011;10836;53.068;18.234;2023-11-19T08:38:26;40.77;;;22.10;;
21356;SDS011;10836;53.068;18.234;2023-11-19T08:40:56;40.63;;;23.07;;
21356;SDS011;10836;53.068;18.234;2023-11-19T08:43:27;55.30;;;31.53;;
21356;SDS011;10836;53.068;18.234;2023-11-19T08:45:54;43.33;;;23.03;;
21356;SDS011;10836;53.068;18.234;2023-11-19T08:48:21;40.67;;;22.50;;
21356;SDS011;10836;53.068;18.234;2023-11-19T08:50:48;36.23;;;21.20;;
21356;SDS011;10836;53.068;18.234;2023-11-19T08:53:15;40.07;;;22.67;;
21356;SDS011;10836;53.068;18.234;2023-11-19T08:55:42;41.40;;;23.67;;
21356;SDS011;10836;53.068;18.234;2023-11-19T08:58:10;42.93;;;22.90;;
21356;SDS011;10836;53.068;18.234;2023-11-19T09:00:36;40.53;;;23.83;;
21356;SDS011;10836;53.068;18.234;2023-11-19T09:03:04;42.60;;;23.37;;
21356;SDS011;10836;53.068;18.234;2023-11-19T09:05:31;42.60;;;22.93;;
21356;SDS011;10836;53.068;18.234;2023-11-19T09:07:58;42.90;;;22.30;;
21356;SDS011;10836;53.068;18.234;2023-11-19T09:10:25;44.93;;;24.17;;
21356;SDS011;10836;53.068;18.234;2023-11-19T09:12:53;42.83;;;23.50;;
21356;SDS011;10836;53.068;18.234;2023-11-19T09:15:24;44.70;;;24.97;;
21356;SDS011;10836;53.068;18.234;2023-11-19T09:17:51;41.53;;;24.60;;
21356;SDS011;10836;53.068;18.234;2023-11-19T09:20:18;45.57;;;24.87;;
21356;SDS011;10836;53.068;18.234;2023-11-19T09:22:45;44.63;;;25.33;;
21356;SDS011;10836;53.068;18.234;2023-11-19T09:25:12;48.30;;;26.70;;
21356;SDS011;10836;53.068;18.234;2023-11-19T09:27:44;43.67;;;24.93;;
21356;SDS011;10836;53.068;18.234;2023-11-19T09:30:11;44.83;;;25.60;;
21356;SDS011;10836;53.068;18.234;2023-11-19T09:32:39;47.27;;;29.43;;
21356;SDS011;10836;53.068;18.234;2023-11-19T09:35:07;47.03;;;26.37;;
21356;SDS011;10836;53.068;18.234;2023-11-19T09:37:35;47.20;;;26.47;;
21356;SDS011;10836;53.068;18.234;2023-11-19T09:40:02;47.17;;;26.10;;
21356;SDS011;10836;53.068;18.234;2023-11-19T09:42:30;46.50;;;25.97;;
21356;SDS011;10836;53.068;18.234;2023-11-19T09:45:04;49.97;;;27.27;;
21356;SDS011;10836;53.068;18.234;2023-11-19T09:47:39;49.93;;;28.57;;
21356;SDS011;10836;53.068;18.234;2023-11-19T09:50:08;48.00;;;27.23;;
21356;SDS011;10836;53.068;18.234;2023-11-19T09:52:36;50.20;;;28.83;;
21356;SDS011;10836;53.068;18.234;2023-11-19T09:55:03;46.37;;;26.93;;
21356;SDS011;10836;53.068;18.234;2023-11-19T09:57:30;51.97;;;28.37;;
21356;SDS011;10836;53.068;18.234;2023-11-19T09:59:59;51.90;;;27.00;;
21356;SDS011;10836;53.068;18.234;2023-11-19T10:02:27;50.23;;;29.97;;
21356;SDS011;10836;53.068;18.234;2023-11-19T10:04:58;50.20;;;27.73;;
21356;SDS011;10836;53.068;18.234;2023-11-19T10:07:29;50.37;;;26.60;;
21356;SDS011;10836;53.068;18.234;2023-11-19T10:09:56;48.23;;;27.03;;
21356;SDS011;10836;53.068;18.234;2023-11-19T10:12:23;50.80;;;28.47;;
21356;SDS011;10836;53.068;18.234;2023-11-19T10:14:50;49.10;;;27.60;;
21356;SDS011;10836;53.068;18.234;2023-11-19T10:17:18;47.63;;;26.63;;
21356;SDS011;10836;53.068;18.234;2023-11-19T10:19:45;45.90;;;25.37;;
21356;SDS011;10836;53.068;18.234;2023-11-19T10:22:12;52.17;;;27.57;;
21356;SDS011;10836;53.068;18.234;2023-11-19T10:24:43;49.73;;;26.47;;
21356;SDS011;10836;53.068;18.234;2023-11-19T10:27:15;47.27;;;26.83;;
21356;SDS011;10836;53.068;18.234;2023-11-19T10:29:45;51.93;;;27.03;;
21356;SDS011;10836;53.068;18.234;2023-11-19T10:32:13;51.13;;;27.17;;
21356;SDS011;10836;53.068;18.234;2023-11-19T10:34:58;51.27;;;29.30;;
21356;SDS011;10836;53.068;18.234;2023-11-19T10:37:32;57.00;;;30.07;;
21356;SDS011;10836;53.068;18.234;2023-11-19T10:39:59;53.33;;;29.57;;
21356;SDS011;10836;53.068;18.234;2023-11-19T10:42:27;51.97;;;28.83;;
21356;SDS011;10836;53.068;18.234;2023-11-19T10:44:54;49.40;;;27.97;;
21356;SDS011;10836;53.068;18.234;2023-11-19T10:47:21;51.57;;;28.50;;
21356;SDS011;10836;53.068;18.234;2023-11-19T10:49:52;54.20;;;27.77;;
21356;SDS011;10836;53.068;18.234;2023-11-19T10:52:19;52.67;;;26.70;;
21356;SDS011;10836;53.068;18.234;2023-11-19T10:54:50;50.40;;;26.07;;
21356;SDS011;10836;53.068;18.234;2023-11-19T10:57:21;51.90;;;29.30;;
21356;SDS011;10836;53.068;18.234;2023-11-19T10:59:49;56.60;;;29.30;;
21356;SDS011;10836;53.068;18.234;2023-11-19T11:02:21;56.87;;;29.87;;
21356;SDS011;10836;53.068;18.234;2023-11-19T11:04:51;56.33;;;29.77;;
21356;SDS011;10836;53.068;18.234;2023-11-19T11:07:20;56.80;;;30.50;;
21356;SDS011;10836;53.068;18.234;2023-11-19T11:10:02;54.33;;;28.83;;
21356;SDS011;10836;53.068;18.234;2023-11-19T11:12:34;58.10;;;30.07;;
21356;SDS011;10836;53.068;18.234;2023-11-19T11:15:04;62.23;;;30.37;;
21356;SDS011;10836;53.068;18.234;2023-11-19T11:17:33;56.40;;;30.57;;
21356;SDS011;10836;53.068;18.234;2023-11-19T11:20:01;66.70;;;33.43;;
21356;SDS011;10836;53.068;18.234;2023-11-19T11:22:30;67.33;;;32.70;;
21356;SDS011;10836;53.068;18.234;2023-11-19T11:25:26;60.57;;;31.10;;
21356;SDS011;10836;53.068;18.234;2023-11-19T11:28:26;66.27;;;33.37;;
21356;SDS011;10836;53.068;18.234;2023-11-19T11:31:06;67.37;;;33.03;;
21356;SDS011;10836;53.068;18.234;2023-11-19T11:33:41;67.60;;;33.80;;
21356;SDS011;10836;53.068;18.234;2023-11-19T11:36:28;69.47;;;33.63;;
21356;SDS011;10836;53.068;18.234;2023-11-19T11:39:03;87.67;;;41.60;;
21356;SDS011;10836;53.068;18.234;2023-11-19T11:41:34;98.43;;;44.80;;
21356;SDS011;10836;53.068;18.234;2023-11-19T11:44:01;70.53;;;34.90;;
21356;SDS011;10836;53.068;18.234;2023-11-19T11:49:05;80.13;;;36.37;;
21356;SDS011;10836;53.068;18.234;2023-11-19T11:57:01;93.77;;;40.83;;
21356;SDS011;10836;53.068;18.234;2023-11-19T11:59:51;81.27;;;38.80;;
21356;SDS011;10836;53.068;18.234;2023-11-19T12:02:19;77.87;;;36.60;;
21356;SDS011;10836;53.068;18.234;2023-11-19T12:04:49;80.37;;;36.07;;
21356;SDS011;10836;53.068;18.234;2023-11-19T12:07:21;72.40;;;34.63;;
21356;SDS011;10836;53.068;18.234;2023-11-19T12:10:05;81.10;;;35.37;;
21356;SDS011;10836;53.068;18.234;2023-11-19T12:12:39;82.30;;;37.23;;
21356;SDS011;10836;53.068;18.234;2023-11-19T12:15:09;83.87;;;36.83;;
21356;SDS011;10836;53.068;18.234;2023-11-19T12:20:07;83.87;;;36.40;;
21356;SDS011;10836;53.068;18.234;2023-11-19T12:22:36;82.40;;;36.00;;
21356;SDS011;10836;53.068;18.234;2023-11-19T12:25:05;86.60;;;38.20;;
21356;SDS011;10836;53.068;18.234;2023-11-19T12:27:33;83.20;;;36.43;;
21356;SDS011;10836;53.068;18.234;2023-11-19T12:30:03;88.40;;;40.67;;
21356;SDS011;10836;53.068;18.234;2023-11-19T12:32:43;81.47;;;39.07;;
21356;SDS011;10836;53.068;18.234;2023-11-19T12:35:12;81.00;;;37.67;;
21356;SDS011;10836;53.068;18.234;2023-11-19T12:37:40;80.33;;;36.50;;
21356;SDS011;10836;53.068;18.234;2023-11-19T12:40:18;96.07;;;43.00;;
21356;SDS011;10836;53.068;18.234;2023-11-19T12:42:46;83.97;;;38.13;;
21356;SDS011;10836;53.068;18.234;2023-11-19T12:45:17;78.13;;;35.33;;
21356;SDS011;10836;53.068;18.234;2023-11-19T12:47:46;77.00;;;36.50;;
21356;SDS011;10836;53.068;18.234;2023-11-19T12:50:15;73.63;;;33.47;;
21356;SDS011;10836;53.068;18.234;2023-11-19T12:52:57;75.40;;;36.43;;
21356;SDS011;10836;53.068;18.234;2023-11-19T12:55:28;70.97;;;33.00;;
21356;SDS011;10836;53.068;18.234;2023-11-19T12:57:57;75.93;;;33.43;;
21356;SDS011;10836;53.068;18.234;2023-11-19T13:00:26;77.13;;;33.90;;
21356;SDS011;10836;53.068;18.234;2023-11-19T13:02:54;67.23;;;31.23;;
21356;SDS011;10836;53.068;18.234;2023-11-19T13:05:23;68.63;;;30.57;;
21356;SDS011;10836;53.068;18.234;2023-11-19T13:07:58;72.97;;;32.23;;
21356;SDS011;10836;53.068;18.234;2023-11-19T13:13:14;70.03;;;31.83;;
21356;SDS011;10836;53.068;18.234;2023-11-19T13:15:41;68.97;;;31.53;;
21356;SDS011;10836;53.068;18.234;2023-11-19T13:18:09;67.27;;;30.07;;
21356;SDS011;10836;53.068;18.234;2023-11-19T13:20:39;65.90;;;32.07;;
21356;SDS011;10836;53.068;18.234;2023-11-19T13:23:06;60.50;;;29.10;;
21356;SDS011;10836;53.068;18.234;2023-11-19T13:25:34;54.60;;;27.73;;
21356;SDS011;10836;53.068;18.234;2023-11-19T13:28:01;62.53;;;29.57;;
21356;SDS011;10836;53.068;18.234;2023-11-19T13:30:29;58.63;;;28.67;;
21356;SDS011;10836;53.068;18.234;2023-11-19T13:32:56;59.47;;;28.30;;
21356;SDS011;10836;53.068;18.234;2023-11-19T13:35:26;65.77;;;29.73;;
21356;SDS011;10836;53.068;18.234;2023-11-19T13:37:54;54.60;;;26.50;;
21356;SDS011;10836;53.068;18.234;2023-11-19T13:40:22;59.30;;;27.03;;
21356;SDS011;10836;53.068;18.234;2023-11-19T13:42:51;62.30;;;30.67;;
21356;SDS011;10836;53.068;18.234;2023-11-19T13:45:18;64.13;;;29.47;;
21356;SDS011;10836;53.068;18.234;2023-11-19T13:47:47;60.73;;;29.50;;
21356;SDS011;10836;53.068;18.234;2023-11-19T13:50:15;57.93;;;28.43;;
21356;SDS011;10836;53.068;18.234;2023-11-19T13:52:44;62.70;;;29.10;;
21356;SDS011;10836;53.068;18.234;2023-11-19T13:55:13;60.17;;;28.50;;
21356;SDS011;10836;53.068;18.234;2023-11-19T13:57:41;62.17;;;28.90;;
21356;SDS011;10836;53.068;18.234;2023-11-19T14:00:10;55.37;;;25.40;;
21356;SDS011;10836;53.068;18.234;2023-11-19T14:02:40;57.50;;;28.27;;
21356;SDS011;10836;53.068;18.234;2023-11-19T14:05:08;66.50;;;28.67;;
21356;SDS011;10836;53.068;18.234;2023-11-19T14:07:35;57.93;;;27.87;;
21356;SDS011;10836;53.068;18.234;2023-11-19T14:10:03;59.27;;;26.93;;
21356;SDS011;10836;53.068;18.234;2023-11-19T14:12:32;58.83;;;27.67;;
21356;SDS011;10836;53.068;18.234;2023-11-19T14:14:59;56.17;;;26.93;;
21356;SDS011;10836;53.068;18.234;2023-11-19T14:17:26;58.70;;;27.60;;
21356;SDS011;10836;53.068;18.234;2023-11-19T14:19:53;56.57;;;26.00;;
21356;SDS011;10836;53.068;18.234;2023-11-19T14:22:20;52.50;;;25.53;;
21356;SDS011;10836;53.068;18.234;2023-11-19T14:24:47;53.53;;;25.67;;
21356;SDS011;10836;53.068;18.234;2023-11-19T14:27:14;55.40;;;25.30;;
21356;SDS011;10836;53.068;18.234;2023-11-19T14:29:44;53.23;;;25.13;;